KAIA/AIA METAR and TAF weather

Enter ICAO airport designator
Station Type Date Time Source
KAIA METAR 2024/06/16 00:23 UTC NOAA

KAIA 160023Z AUTO 31025G39KT 7SM TS FEW120 26/08 A2973 RMK AO2 PK WND 32039/0020 WSHFT 0009 LTG DSNT N AND NW TSB20 T02610083


Station Type Date Time Source
KAIA Decoded METAR 2024/06/16 00:23 UTC NOAA

ALLIANCE MUNICIPAL AIRPORT, NE, United States (KAIA) 42-03N 102-48W 1196M
Jun 15, 2024 - 08:23 PM EDT / 2024.06.16 0023 UTC
Wind: from the NW (310 degrees) at 29 MPH (25 KT) gusting to 45 MPH (39 KT):0
Visibility: 7 mile(s):0
Sky conditions: mostly clear
Weather: thunder; Lightning observed
Temperature: 79.0 F (26.1 C)
Dew Point: 46.9 F (8.3 C)
Relative Humidity: 32%
Pressure (altimeter): 29.73 in. Hg (1006 hPa)
ob: KAIA 160023Z AUTO 31025G39KT 7SM TS FEW120 26/08 A2973 RMK AO2 PK WND 32039/0020 WSHFT 0009 LTG DSNT N AND NW TSB20 T02610083
cycle: 0

Station Type Date Time Source
KAIA TAF 2024/06/15 21:59 UTC NOAA